GMMN

Mohammed V International Airport

Casablanca, Morocco
METAR GMMN 231400Z 33009KT 290V010 CAVOK 17/10 Q1003 NOSIG
Observed Flight Rules
Feb-23 @ 14:00 UTC (24 minutes ago) Visual Flight Rules
Wind Visibility Clouds
330° at 9 knots 10,000+ meters
  • Clear skies
Temperatures Readings
Current 17°C / 63°F
Dewpoint 10°C / 50°F
Humidity 64%
Altimeter 29.62" Hg
Pressure 1003 hPa
Elevation 206
METAR GMMN 231400Z 33009KT 290V010 CAVOK 17/10 Q1003 NOSIG
Observed Flight Rules
Feb-23 @ 14:00 UTC
(24 minutes ago)
VFR
Wind Visibility
330° at 9 knots 10,000+ meters
Clouds
  • Clear skies
Temperature Dewpoint
17°C / 63°F 10°C / 50°F
Humidity Altimeter Pressure
64% 29.62" Hg 1003 hPa